Time;durP1;ratioP1;P1;durP2;ratioP2;P2;SDS_P1;SDS_P2;PMS_P1;PMS_P2;Temp;Humidity;BMP_temperature;BMP_pressure;BME280_temperature;BME280_humidity;BME280_pressure;Samples;Min_cycle;Max_cycle;Signal;HPM_P1;HPM_P2
2021/01/12 00:01:10;;;;;;;78.55;10.25;;;6.40;99.90;;;;;;5031500;28;20083;-76
2021/01/12 00:03:35;;;;;;;72.63;10.07;;;6.50;99.90;;;;;;5031432;28;20042;-76
2021/01/12 00:06:01;;;;;;;87.22;12.88;;;6.50;99.90;;;;;;5031405;28;20021;-75
2021/01/12 00:08:26;;;;;;;81.68;9.95;;;6.60;99.90;;;;;;5020853;28;20030;-75
2021/01/12 00:10:52;;;;;;;94.30;9.02;;;6.60;99.90;;;;;;5011658;28;20044;-75
2021/01/12 00:13:17;;;;;;;81.95;9.27;;;6.60;99.90;;;;;;5010534;28;20061;-75
2021/01/12 00:15:43;;;;;;;81.93;11.20;;;6.70;99.90;;;;;;5009780;28;20029;-75
2021/01/12 00:18:08;;;;;;;70.90;9.93;;;6.70;99.90;;;;;;5016641;28;20067;-75
2021/01/12 00:20:34;;;;;;;71.07;10.55;;;6.70;99.90;;;;;;5030265;28;20029;-75
2021/01/12 00:22:59;;;;;;;81.18;9.68;;;6.70;99.90;;;;;;5031487;28;20026;-75
2021/01/12 00:25:25;;;;;;;78.20;10.48;;;6.70;99.90;;;;;;5034332;28;20029;-75
2021/01/12 00:27:52;;;;;;;69.03;9.95;;;6.70;99.90;;;;;;5026423;28;20034;-75
2021/01/12 00:30:18;;;;;;;71.40;10.07;;;6.70;99.90;;;;;;5015434;28;20080;-75
2021/01/12 00:32:43;;;;;;;63.67;7.25;;;6.70;99.90;;;;;;5015322;28;20018;-75
2021/01/12 00:35:09;;;;;;;47.22;7.20;;;6.60;99.90;;;;;;5013847;28;20113;-75
2021/01/12 00:37:34;;;;;;;37.00;5.07;;;6.50;99.90;;;;;;5018382;28;20029;-75
2021/01/12 00:40:00;;;;;;;40.47;5.38;;;6.30;99.90;;;;;;5035102;28;20052;-76
2021/01/12 00:42:26;;;;;;;36.90;4.13;;;6.20;99.90;;;;;;5034543;28;20060;-76
2021/01/12 00:44:51;;;;;;;5.43;1.10;;;6.10;99.90;;;;;;5034686;28;20494;-75
2021/01/12 00:47:17;;;;;;;3.80;1.15;;;5.50;99.90;;;;;;5033547;28;20029;-75
2021/01/12 00:49:42;;;;;;;10.35;1.27;;;5.10;99.90;;;;;;5016745;28;20033;-75
2021/01/12 00:52:10;;;;;;;12.98;1.27;;;5.00;99.90;;;;;;5015091;28;20052;-75
2021/01/12 00:54:35;;;;;;;8.70;1.38;;;4.80;99.90;;;;;;5014634;28;20037;-75
2021/01/12 00:57:01;;;;;;;6.40;1.00;;;4.80;99.90;;;;;;5014873;28;20030;-75
2021/01/12 00:59:27;;;;;;;2.95;1.42;;;4.80;99.90;;;;;;5034630;28;20474;-75
2021/01/12 01:01:57;;;;;;;4.53;1.73;;;4.70;99.90;;;;;;5034630;28;20091;-75
2021/01/12 01:04:22;;;;;;;5.38;1.02;;;4.70;99.90;;;;;;5034481;28;20478;-75
2021/01/12 01:06:48;;;;;;;9.57;1.58;;;4.60;99.90;;;;;;5034317;28;20033;-76
2021/01/12 01:09:14;;;;;;;6.30;1.70;;;4.60;99.90;;;;;;5017456;28;20033;-76
2021/01/12 01:11:42;;;;;;;9.52;1.42;;;4.50;99.90;;;;;;5014568;28;20022;-76
2021/01/12 01:14:08;;;;;;;4.90;1.40;;;4.50;99.90;;;;;;5014424;28;20112;-76
2021/01/12 01:16:35;;;;;;;5.30;1.52;;;4.50;99.90;;;;;;5014152;28;20105;-76
2021/01/12 01:19:01;;;;;;;6.80;1.42;;;4.50;99.90;;;;;;5026511;28;20112;-76
2021/01/12 01:21:26;;;;;;;8.55;1.15;;;4.40;99.90;;;;;;5034300;28;20446;-76
2021/01/12 01:23:52;;;;;;;4.15;1.30;;;4.50;99.90;;;;;;5032699;28;20021;-76
2021/01/12 01:26:21;;;;;;;6.43;1.27;;;4.40;99.90;;;;;;5032720;28;20030;-76
2021/01/12 01:28:47;;;;;;;10.32;1.25;;;4.40;99.90;;;;;;5018002;28;20490;-75
2021/01/12 01:31:13;;;;;;;6.32;1.30;;;4.40;99.90;;;;;;5014358;28;20441;-76
2021/01/12 01:33:39;;;;;;;10.50;2.50;;;4.30;99.90;;;;;;5014188;28;20018;-76
2021/01/12 01:36:09;;;;;;;9.40;1.27;;;4.30;99.90;;;;;;5011798;28;20052;-76
2021/01/12 01:38:34;;;;;;;11.30;1.60;;;4.30;99.90;;;;;;5025305;28;20078;-76
2021/01/12 01:41:00;;;;;;;11.40;1.30;;;4.30;99.90;;;;;;5033847;28;20021;-75
2021/01/12 01:43:26;;;;;;;5.45;1.25;;;4.30;99.90;;;;;;5033632;28;20068;-76
2021/01/12 01:45:52;;;;;;;20.00;1.88;;;4.20;99.90;;;;;;5027497;28;20026;-76
2021/01/12 01:48:19;;;;;;;16.55;2.45;;;4.20;99.90;;;;;;5013984;28;20033;-76
2021/01/12 01:50:45;;;;;;;16.50;1.92;;;4.20;99.90;;;;;;5014003;28;20033;-76
2021/01/12 01:53:11;;;;;;;26.23;1.95;;;4.20;99.90;;;;;;5013876;28;20033;-76
2021/01/12 01:55:39;;;;;;;22.30;1.83;;;4.10;99.90;;;;;;5014336;28;20021;-76
2021/01/12 01:58:05;;;;;;;22.90;2.65;;;4.10;99.90;;;;;;5032976;28;20030;-76
2021/01/12 02:00:32;;;;;;;18.95;2.30;;;4.10;99.90;;;;;;5033498;28;20112;-76
2021/01/12 02:03:12;;;;;;;17.58;2.00;;;4.20;99.90;;;;;;5033555;28;20057;-76
2021/01/12 02:05:48;;;;;;;29.98;1.80;;;4.10;99.90;;;;;;5032005;28;20044;-75
2021/01/12 02:08:26;;;;;;;24.73;2.55;;;4.10;99.90;;;;;;5033108;28;20038;-76
2021/01/12 02:10:56;;;;;;;33.45;3.92;;;4.10;99.90;;;;;;5033027;28;20022;-76
2021/01/12 02:13:25;;;;;;;28.83;2.53;;;4.10;99.90;;;;;;5033083;28;20026;-76
2021/01/12 02:15:55;;;;;;;25.45;3.38;;;4.10;99.90;;;;;;5032960;28;20025;-76
2021/01/12 02:18:21;;;;;;;30.38;3.58;;;4.20;99.90;;;;;;5015525;28;20056;-76
2021/01/12 02:20:47;;;;;;;26.20;2.95;;;4.20;99.90;;;;;;5013462;28;20073;-76
2021/01/12 02:23:17;;;;;;;38.22;2.58;;;4.20;99.90;;;;;;5013388;28;20030;-76
2021/01/12 02:25:44;;;;;;;18.45;2.47;;;4.30;99.90;;;;;;5013051;28;20041;-76
2021/01/12 02:28:12;;;;;;;12.07;1.63;;;4.20;99.90;;;;;;5031054;28;20117;-75
2021/01/12 02:30:38;;;;;;;18.73;2.20;;;4.10;99.90;;;;;;5032816;28;20025;-76
2021/01/12 02:33:05;;;;;;;22.52;2.22;;;4.10;99.90;;;;;;5032959;28;20029;-76
2021/01/12 02:35:33;;;;;;;32.33;2.50;;;4.10;99.90;;;;;;5031396;28;20025;-76
2021/01/12 02:38:01;;;;;;;16.38;2.25;;;4.10;99.90;;;;;;5026304;28;20040;-76
2021/01/12 02:40:26;;;;;;;19.83;3.05;;;4.00;99.90;;;;;;5032789;28;20029;-76
2021/01/12 02:42:52;;;;;;;20.25;1.98;;;4.00;99.90;;;;;;5031145;28;20036;-76
2021/01/12 02:45:19;;;;;;;18.80;1.67;;;4.00;99.90;;;;;;5032384;28;20112;-76
2021/01/12 02:47:45;;;;;;;12.68;2.03;;;4.00;99.90;;;;;;5028234;28;20570;-76
2021/01/12 02:50:12;;;;;;;21.98;3.38;;;4.00;99.90;;;;;;5012979;28;20438;-76
2021/01/12 02:52:41;;;;;;;13.48;1.63;;;3.90;99.90;;;;;;5012896;28;20050;-76
2021/01/12 02:55:09;;;;;;;21.10;1.90;;;3.90;99.90;;;;;;5011178;28;20033;-76
2021/01/12 02:57:35;;;;;;;16.58;1.80;;;3.90;99.90;;;;;;5024716;28;20029;-76
2021/01/12 03:00:04;;;;;;;16.48;1.73;;;3.90;99.90;;;;;;5052353;28;20025;-76
2021/01/12 03:02:29;;;;;;;19.25;1.85;;;3.90;99.90;;;;;;5052327;28;20029;-75
2021/01/12 03:04:55;;;;;;;15.02;1.90;;;3.80;99.90;;;;;;5052026;28;20030;-76
2021/01/12 03:07:20;;;;;;;11.35;1.92;;;3.80;99.90;;;;;;5049935;28;20028;-76
2021/01/12 03:09:46;;;;;;;21.95;3.05;;;3.80;99.90;;;;;;5032329;28;20109;-76
2021/01/12 03:12:11;;;;;;;12.38;1.83;;;3.80;99.90;;;;;;5030574;28;20025;-76
2021/01/12 03:14:37;;;;;;;18.20;1.73;;;3.70;99.90;;;;;;5030724;28;20021;-76
2021/01/12 03:17:03;;;;;;;26.25;2.85;;;3.70;99.90;;;;;;5030837;28;20052;-75
2021/01/12 03:19:28;;;;;;;17.10;2.72;;;3.80;99.90;;;;;;5013917;28;20037;-76
2021/01/12 03:21:54;;;;;;;9.65;1.38;;;3.70;99.90;;;;;;5011578;28;20037;-76
2021/01/12 03:24:19;;;;;;;11.10;1.38;;;3.80;99.90;;;;;;5012248;28;20125;-76
2021/01/12 03:26:45;;;;;;;9.35;1.27;;;3.80;99.90;;;;;;5010748;28;20049;-76
2021/01/12 03:29:10;;;;;;;14.25;1.63;;;3.70;99.90;;;;;;5031010;28;20037;-75
2021/01/12 03:31:36;;;;;;;14.52;2.28;;;3.70;99.90;;;;;;5032008;28;20026;-76
2021/01/12 03:34:02;;;;;;;26.33;2.60;;;3.70;99.90;;;;;;5030515;28;20018;-76
2021/01/12 03:36:27;;;;;;;5.90;1.30;;;3.70;99.90;;;;;;5030611;28;20440;-76
2021/01/12 03:38:53;;;;;;;11.88;3.17;;;3.60;99.90;;;;;;5017843;28;20117;-76
2021/01/12 03:41:19;;;;;;;18.77;1.25;;;3.70;99.90;;;;;;5012073;28;20037;-76
2021/01/12 03:43:44;;;;;;;18.00;1.50;;;3.70;99.90;;;;;;5011922;28;20050;-76
2021/01/12 03:46:10;;;;;;;19.42;1.50;;;3.60;99.90;;;;;;5011981;28;20023;-76
2021/01/12 03:48:35;;;;;;;12.05;1.92;;;3.50;99.90;;;;;;5020259;28;20029;-75
2021/01/12 03:51:01;;;;;;;15.75;1.88;;;3.50;99.90;;;;;;5030561;28;20671;-76
2021/01/12 03:53:27;;;;;;;16.77;2.80;;;3.50;99.90;;;;;;5031845;28;20393;-76
2021/01/12 03:55:52;;;;;;;19.65;1.85;;;3.50;99.90;;;;;;5031333;28;20033;-76
2021/01/12 03:58:18;;;;;;;17.08;1.77;;;3.50;99.90;;;;;;5019562;28;20069;-76
2021/01/12 04:00:44;;;;;;;10.02;1.52;;;3.50;99.90;;;;;;5014531;28;20033;-76
2021/01/12 04:03:10;;;;;;;18.45;2.38;;;3.50;99.90;;;;;;5016076;28;20034;-76
2021/01/12 04:05:38;;;;;;;7.00;1.10;;;3.50;99.90;;;;;;5015196;28;20054;-76
2021/01/12 04:08:08;;;;;;;20.45;1.67;;;3.50;99.90;;;;;;5022679;28;20033;-76
2021/01/12 04:10:33;;;;;;;20.13;1.55;;;3.50;99.90;;;;;;5034401;28;20482;-76
2021/01/12 04:13:00;;;;;;;13.30;2.28;;;3.50;99.90;;;;;;5035325;28;20030;-76
2021/01/12 04:15:26;;;;;;;12.32;2.00;;;3.50;99.90;;;;;;5035267;28;20017;-76
2021/01/12 04:17:52;;;;;;;10.05;1.73;;;3.50;99.90;;;;;;5032840;28;20048;-76
2021/01/12 04:20:18;;;;;;;25.33;2.10;;;3.50;99.90;;;;;;5015751;28;20030;-76
2021/01/12 04:22:43;;;;;;;21.20;1.35;;;3.50;99.90;;;;;;5015657;28;20037;-76
2021/01/12 04:25:09;;;;;;;21.25;2.25;;;3.50;99.90;;;;;;5014168;28;20068;-76
2021/01/12 04:27:35;;;;;;;23.67;2.30;;;3.50;99.90;;;;;;5020083;28;20029;-76
2021/01/12 04:30:01;;;;;;;13.32;2.10;;;3.50;99.90;;;;;;5035204;28;20025;-75
2021/01/12 04:32:26;;;;;;;17.35;1.90;;;3.40;99.90;;;;;;5035328;28;20049;-75
2021/01/12 04:34:52;;;;;;;25.10;2.15;;;3.40;99.90;;;;;;5033680;28;20542;-76
2021/01/12 04:37:17;;;;;;;19.48;3.30;;;3.30;99.90;;;;;;5034274;28;20029;-76
2021/01/12 04:39:43;;;;;;;23.10;2.83;;;3.30;99.90;;;;;;5015343;28;20509;-76
2021/01/12 04:42:09;;;;;;;15.20;1.80;;;3.30;99.90;;;;;;5014029;28;20041;-76
2021/01/12 04:44:34;;;;;;;20.20;2.30;;;3.20;99.90;;;;;;5015062;28;20030;-76
2021/01/12 04:47:00;;;;;;;25.52;2.38;;;3.30;99.90;;;;;;5015005;28;20062;-76
2021/01/12 04:49:25;;;;;;;21.52;2.58;;;3.30;99.90;;;;;;5030183;28;20025;-76
2021/01/12 04:51:52;;;;;;;33.60;3.05;;;3.30;99.90;;;;;;5033653;28;20164;-76
2021/01/12 04:54:17;;;;;;;30.55;2.58;;;3.30;99.90;;;;;;5034571;28;20021;-76
2021/01/12 04:56:43;;;;;;;30.08;2.22;;;3.10;99.90;;;;;;5034772;28;20025;-76
2021/01/12 04:59:08;;;;;;;11.68;1.52;;;3.20;99.90;;;;;;5015751;28;20033;-76
2021/01/12 05:01:35;;;;;;;32.10;3.65;;;3.10;99.90;;;;;;5013841;28;20104;-76
2021/01/12 05:04:04;;;;;;;17.20;2.05;;;3.10;99.90;;;;;;5013563;28;20026;-75
2021/01/12 05:06:30;;;;;;;22.23;2.75;;;3.00;99.90;;;;;;5014408;28;20393;-76
2021/01/12 05:08:56;;;;;;;22.92;1.60;;;3.00;99.90;;;;;;5028762;28;20025;-76
2021/01/12 05:11:32;;;;;;;14.63;2.05;;;2.90;99.90;;;;;;5034090;28;20589;-76
2021/01/12 05:14:03;;;;;;;16.70;2.38;;;2.80;99.90;;;;;;5034165;28;20029;-75
2021/01/12 05:16:28;;;;;;;22.33;2.50;;;2.80;99.90;;;;;;5033167;28;20025;-75
2021/01/12 05:18:55;;;;;;;18.67;1.98;;;2.70;99.90;;;;;;5023215;28;20552;-75
2021/01/12 05:21:23;;;;;;;18.88;2.88;;;2.60;99.90;;;;;;5014605;28;20072;-76
2021/01/12 05:24:04;;;;;;;17.85;1.50;;;2.50;99.90;;;;;;5013053;28;20021;-76
2021/01/12 05:26:37;;;;;;;30.45;2.28;;;2.50;99.90;;;;;;5014355;28;20030;-76
2021/01/12 05:29:04;;;;;;;11.95;1.75;;;2.40;99.90;;;;;;5031722;28;20031;-76
2021/01/12 05:31:30;;;;;;;23.67;2.40;;;2.30;99.90;;;;;;5034131;28;20460;-76
2021/01/12 05:34:09;;;;;;;12.43;1.40;;;2.10;99.90;;;;;;5032385;28;20032;-76
2021/01/12 05:36:47;;;;;;;23.27;3.17;;;2.00;99.90;;;;;;5033930;28;20521;-76
2021/01/12 05:39:19;;;;;;;21.15;1.63;;;2.00;99.90;;;;;;5033994;28;20367;-76
2021/01/12 05:41:46;;;;;;;16.98;3.10;;;1.90;99.90;;;;;;5034049;28;20036;-75
2021/01/12 05:44:14;;;;;;;7.88;2.17;;;1.90;99.90;;;;;;5013315;28;20037;-75
2021/01/12 05:46:41;;;;;;;22.65;1.60;;;1.90;99.90;;;;;;5012848;28;20088;-76
2021/01/12 05:49:08;;;;;;;20.33;2.63;;;1.80;99.90;;;;;;5014152;28;20053;-76
2021/01/12 05:51:46;;;;;;;14.13;1.85;;;1.70;99.90;;;;;;5012779;28;20065;-76
2021/01/12 05:54:26;;;;;;;12.18;1.88;;;1.70;99.90;;;;;;5013493;28;20064;-76
2021/01/12 05:56:57;;;;;;;27.65;2.38;;;1.60;99.90;;;;;;5012687;28;20030;-76
2021/01/12 05:59:24;;;;;;;15.48;1.60;;;1.50;99.90;;;;;;5014271;28;20022;-76
2021/01/12 06:01:55;;;;;;;14.02;1.77;;;1.40;99.90;;;;;;5013866;28;20022;-76
2021/01/12 06:04:22;;;;;;;19.45;1.67;;;1.40;99.90;;;;;;5027971;28;20030;-76
2021/01/12 06:06:49;;;;;;;21.48;1.52;;;1.30;99.90;;;;;;5032986;28;20053;-76
2021/01/12 06:09:16;;;;;;;22.02;1.30;;;1.30;99.90;;;;;;5033395;28;20075;-76
2021/01/12 06:11:46;;;;;;;14.07;1.55;;;1.30;99.90;;;;;;5033377;28;20052;-75
2021/01/12 06:14:17;;;;;;;23.58;1.88;;;1.20;99.90;;;;;;5031618;28;20025;-76
2021/01/12 06:16:44;;;;;;;22.42;1.83;;;1.30;99.90;;;;;;5031993;28;20029;-76
2021/01/12 06:19:25;;;;;;;21.35;2.20;;;1.30;99.90;;;;;;5033318;28;20069;-76
2021/01/12 06:21:53;;;;;;;15.68;2.70;;;1.20;99.90;;;;;;5032654;28;20402;-76
2021/01/12 06:24:34;;;;;;;26.10;2.75;;;1.10;99.90;;;;;;5049677;28;20043;-76
2021/01/12 06:27:00;;;;;;;15.63;2.25;;;1.10;99.90;;;;;;5052677;28;20017;-75
2021/01/12 06:29:32;;;;;;;14.48;2.20;;;0.90;99.90;;;;;;5051763;28;20556;-76
2021/01/12 06:31:58;;;;;;;10.40;1.60;;;0.70;99.90;;;;;;5051721;28;20033;-76
2021/01/12 06:34:24;;;;;;;5.13;1.05;;;0.50;99.90;;;;;;5036671;28;20402;-76
2021/01/12 06:36:55;;;;;;;17.00;1.63;;;0.40;99.90;;;;;;5032881;28;20033;-76
2021/01/12 06:39:39;;;;;;;14.07;2.05;;;0.40;99.90;;;;;;5031616;28;20021;-76
2021/01/12 06:42:05;;;;;;;14.02;1.48;;;0.40;99.90;;;;;;5029838;28;20390;-76
2021/01/12 06:44:33;;;;;;;20.10;1.90;;;0.40;99.90;;;;;;5011564;28;20030;-76
2021/01/12 06:47:00;;;;;;;14.30;1.65;;;0.40;99.90;;;;;;5011570;28;20088;-76
2021/01/12 06:49:30;;;;;;;25.67;1.92;;;0.50;99.90;;;;;;5011715;28;20029;-76
2021/01/12 06:52:05;;;;;;;18.48;1.77;;;0.50;99.90;;;;;;5012921;28;20022;-76
2021/01/12 06:54:45;;;;;;;14.00;2.38;;;0.50;99.90;;;;;;5029736;28;20025;-76
2021/01/12 06:57:13;;;;;;;15.93;2.00;;;0.50;99.90;;;;;;5030977;28;20192;-76
2021/01/12 06:59:45;;;;;;;13.82;1.73;;;0.50;99.90;;;;;;5032582;28;20052;-76
2021/01/12 07:02:31;;;;;;;14.07;2.08;;;0.40;99.90;;;;;;5032517;28;20506;-75
2021/01/12 07:05:09;;;;;;;17.05;2.47;;;0.40;99.90;;;;;;5012850;28;20041;-76
2021/01/12 07:07:45;;;;;;;8.55;1.85;;;0.40;99.90;;;;;;5012561;28;20112;-76
2021/01/12 07:10:19;;;;;;;12.63;1.83;;;0.40;99.90;;;;;;5011408;28;20037;-76
2021/01/12 07:12:46;;;;;;;16.30;2.03;;;0.40;99.90;;;;;;5102407;22;20131;-81
2021/01/12 07:15:19;;;;;;;11.85;1.35;;;0.40;99.90;;;;;;5051194;28;20025;-81
2021/01/12 07:17:51;;;;;;;7.63;1.17;;;0.30;99.90;;;;;;5034312;28;20036;-80
2021/01/12 07:20:22;;;;;;;13.10;2.20;;;0.20;99.90;;;;;;5052120;28;20032;-80
2021/01/12 07:22:56;;;;;;;14.80;1.80;;;0.10;99.90;;;;;;5033690;28;20026;-80
2021/01/12 07:25:25;;;;;;;8.68;1.75;;;0.10;99.90;;;;;;4994443;28;20034;-80
2021/01/12 07:28:18;;;;;;;13.75;1.92;;;0.10;99.90;;;;;;5020287;28;20037;-81
2021/01/12 07:30:52;;;;;;;15.05;3.47;;;0.20;99.90;;;;;;5011049;28;20133;-81
2021/01/12 07:33:17;;;;;;;11.00;2.92;;;0.20;99.90;;;;;;5013389;28;20022;-80
2021/01/12 07:35:49;;;;;;;17.80;2.22;;;0.20;99.90;;;;;;5013847;28;20021;-81
2021/01/12 07:38:16;;;;;;;9.48;2.10;;;0.20;99.90;;;;;;5031942;28;20034;-80
2021/01/12 07:40:42;;;;;;;17.67;2.90;;;0.20;99.90;;;;;;5031852;28;20033;-80
2021/01/12 07:43:14;;;;;;;26.20;2.72;;;0.30;99.90;;;;;;5014006;28;20619;-80
2021/01/12 07:45:40;;;;;;;26.38;2.50;;;0.40;99.90;;;;;;5013976;28;20056;-80
2021/01/12 07:48:06;;;;;;;24.92;2.10;;;0.60;99.90;;;;;;5013976;28;20025;-80
2021/01/12 07:50:31;;;;;;;29.50;2.58;;;0.70;99.90;;;;;;5031659;28;20021;-80
2021/01/12 07:52:58;;;;;;;24.30;3.45;;;0.80;99.90;;;;;;5014019;28;20030;-80
2021/01/12 07:55:24;;;;;;;24.45;2.50;;;0.90;99.90;;;;;;5013709;28;20021;-81
2021/01/12 07:57:52;;;;;;;29.25;4.07;;;0.90;99.90;;;;;;5014087;28;20040;-80
2021/01/12 08:00:19;;;;;;;12.98;3.63;;;0.80;99.90;;;;;;5031714;28;20026;-80
2021/01/12 08:02:49;;;;;;;17.30;2.75;;;0.70;99.90;;;;;;4995142;28;20030;-80
2021/01/12 08:05:18;;;;;;;20.83;2.25;;;0.60;99.90;;;;;;5013062;28;20026;-81
2021/01/12 08:07:44;;;;;;;19.05;2.22;;;0.60;99.90;;;;;;5031325;28;20389;-80
2021/01/12 08:10:10;;;;;;;20.38;2.35;;;0.50;99.90;;;;;;5031353;28;20375;-80
2021/01/12 08:12:36;;;;;;;15.48;2.00;;;0.50;99.90;;;;;;5030945;28;20026;-80
2021/01/12 08:15:11;;;;;;;16.00;2.10;;;0.50;99.90;;;;;;5013546;28;20523;-80
2021/01/12 08:17:37;;;;;;;14.27;1.88;;;0.50;99.90;;;;;;5031213;28;20122;-80
2021/01/12 08:20:06;;;;;;;17.38;2.15;;;0.40;99.90;;;;;;5031365;28;20098;-80
2021/01/12 08:22:31;;;;;;;21.40;3.15;;;0.30;99.90;;;;;;5030896;28;20118;-80
2021/01/12 08:25:04;;;;;;;27.33;3.58;;;0.30;99.90;;;;;;5031128;28;20110;-80
2021/01/12 08:27:30;;;;;;;14.23;1.92;;;0.20;99.90;;;;;;5013413;28;20108;-80
2021/01/12 08:29:59;;;;;;;8.35;1.33;;;0.30;99.90;;;;;;5031119;28;20026;-80
2021/01/12 08:32:31;;;;;;;19.15;1.92;;;0.30;99.90;;;;;;5013511;28;20036;-80
2021/01/12 08:35:01;;;;;;;18.85;3.03;;;0.30;99.90;;;;;;5030936;28;20026;-80
2021/01/12 08:37:28;;;;;;;9.15;1.98;;;0.40;99.90;;;;;;5013619;28;20060;-80
2021/01/12 08:39:58;;;;;;;13.88;1.92;;;0.40;99.90;;;;;;5031223;28;20036;-80
2021/01/12 08:42:25;;;;;;;17.95;2.17;;;0.40;99.90;;;;;;5030939;28;20018;-80
2021/01/12 08:44:51;;;;;;;9.38;1.65;;;0.50;99.90;;;;;;5013856;28;20445;-81
2021/01/12 08:47:27;;;;;;;21.92;2.17;;;0.70;99.90;;;;;;5034805;28;20155;-80
2021/01/12 08:50:19;;;;;;;19.85;2.53;;;0.80;99.90;;;;;;5017267;28;20052;-80
2021/01/12 08:52:48;;;;;;;14.35;2.25;;;1.00;99.90;;;;;;5030311;28;20033;-80
2021/01/12 08:55:16;;;;;;;12.68;2.53;;;1.10;99.90;;;;;;5034460;28;20022;-81
2021/01/12 08:57:42;;;;;;;20.98;2.53;;;1.40;99.90;;;;;;5016919;28;20055;-80
2021/01/12 09:00:12;;;;;;;19.65;2.60;;;1.70;99.90;;;;;;5016853;28;20178;-80
2021/01/12 09:02:38;;;;;;;21.65;2.53;;;1.80;99.90;;;;;;5034283;28;20028;-80
2021/01/12 09:05:06;;;;;;;13.45;2.08;;;1.80;99.90;;;;;;5016061;28;20387;-81
2021/01/12 09:07:33;;;;;;;19.55;1.67;;;1.90;99.90;;;;;;5016687;28;20036;-81
2021/01/12 09:09:59;;;;;;;14.20;2.47;;;1.80;99.90;;;;;;5016683;28;20116;-81
2021/01/12 09:12:26;;;;;;;7.93;1.55;;;1.80;99.90;;;;;;5034074;28;20037;-81
2021/01/12 09:14:51;;;;;;;12.27;1.80;;;1.80;99.90;;;;;;5016493;28;20030;-81
2021/01/12 09:17:19;;;;;;;10.50;1.80;;;1.70;99.90;;;;;;5034374;28;20048;-81
2021/01/12 09:19:49;;;;;;;19.52;2.05;;;1.60;99.90;;;;;;5016367;28;20033;-81
2021/01/12 09:22:15;;;;;;;28.92;2.53;;;1.50;99.90;;;;;;5016280;28;20028;-81
2021/01/12 09:24:50;;;;;;;13.25;2.03;;;1.40;99.90;;;;;;5016117;28;20029;-80
2021/01/12 09:27:20;;;;;;;22.00;1.38;;;1.40;99.90;;;;;;5034078;28;20029;-81
2021/01/12 09:29:47;;;;;;;10.93;1.65;;;1.50;99.90;;;;;;5034116;28;20029;-81
2021/01/12 09:32:12;;;;;;;22.75;2.13;;;1.60;99.90;;;;;;5016236;28;20021;-81
2021/01/12 09:34:41;;;;;;;16.85;1.48;;;1.80;99.90;;;;;;5015661;28;20029;-80
2021/01/12 09:37:17;;;;;;;18.02;1.98;;;2.00;99.90;;;;;;5008161;28;20033;-81
2021/01/12 09:39:54;;;;;;;16.60;2.22;;;2.30;99.90;;;;;;5016001;28;20057;-81
2021/01/12 09:42:25;;;;;;;18.85;3.15;;;2.50;99.90;;;;;;5033487;28;20029;-80
2021/01/12 09:44:52;;;;;;;13.75;2.20;;;2.80;99.90;;;;;;5031471;28;20029;-80
2021/01/12 09:47:21;;;;;;;30.67;4.13;;;3.00;99.90;;;;;;5015811;28;20383;-80
2021/01/12 09:49:46;;;;;;;18.98;2.15;;;3.10;99.90;;;;;;5015783;28;20490;-81
2021/01/12 09:52:12;;;;;;;23.55;3.28;;;3.10;99.90;;;;;;5015887;28;20075;-80
2021/01/12 09:54:45;;;;;;;24.73;3.67;;;3.10;99.90;;;;;;5032226;28;20104;-81
2021/01/12 09:57:11;;;;;;;10.45;1.95;;;3.00;99.90;;;;;;5032576;28;20017;-81
2021/01/12 09:59:37;;;;;;;12.32;2.10;;;3.10;99.90;;;;;;5033536;28;20030;-80
2021/01/12 10:02:02;;;;;;;18.98;1.98;;;3.20;99.90;;;;;;5015586;28;20576;-80
2021/01/12 10:04:28;;;;;;;18.90;3.03;;;3.20;99.90;;;;;;5015276;28;20039;-80
2021/01/12 10:06:57;;;;;;;13.82;1.67;;;3.30;99.90;;;;;;5015070;28;20113;-80
2021/01/12 10:09:24;;;;;;;23.90;2.70;;;3.40;99.90;;;;;;5033405;28;20057;-80
2021/01/12 10:11:50;;;;;;;20.27;3.28;;;3.50;99.90;;;;;;5015493;28;20042;-80
2021/01/12 10:14:17;;;;;;;16.17;2.72;;;3.50;99.90;;;;;;5010551;28;20032;-80
2021/01/12 10:16:42;;;;;;;19.42;2.35;;;3.70;99.90;;;;;;5032969;28;20018;-80
2021/01/12 10:19:08;;;;;;;26.00;2.22;;;3.90;99.90;;;;;;5032626;28;20040;-80
2021/01/12 10:21:34;;;;;;;12.32;1.27;;;4.10;99.90;;;;;;5032478;28;20030;-81
2021/01/12 10:24:00;;;;;;;10.82;1.90;;;4.30;99.90;;;;;;5032879;28;20069;-81
2021/01/12 10:26:27;;;;;;;10.50;3.00;;;4.40;99.90;;;;;;5032483;28;20102;-80
2021/01/12 10:28:52;;;;;;;12.20;1.85;;;4.30;99.90;;;;;;5032796;28;20515;-81
2021/01/12 10:31:20;;;;;;;7.80;1.38;;;4.30;99.90;;;;;;5014568;28;20104;-80
2021/01/12 10:33:47;;;;;;;6.03;1.10;;;4.30;99.90;;;;;;5031975;28;20485;-81
2021/01/12 10:36:14;;;;;;;14.40;2.92;;;4.40;99.90;;;;;;5032502;28;20044;-81
2021/01/12 10:38:41;;;;;;;15.93;1.83;;;4.50;99.90;;;;;;5015143;28;20025;-81
2021/01/12 10:41:06;;;;;;;26.60;3.15;;;4.60;99.90;;;;;;5032576;28;20033;-81
2021/01/12 10:43:32;;;;;;;17.20;1.88;;;4.60;99.90;;;;;;5032087;28;20033;-81
2021/01/12 10:46:00;;;;;;;16.30;1.70;;;4.50;99.90;;;;;;5032060;28;20029;-81
2021/01/12 10:48:25;;;;;;;16.65;2.30;;;4.50;99.90;;;;;;5014489;28;20497;-81
2021/01/12 10:50:51;;;;;;;14.88;1.35;;;4.30;99.90;;;;;;5014666;28;20029;-81
2021/01/12 10:53:16;;;;;;;13.63;2.03;;;4.30;99.90;;;;;;5014588;28;20031;-81
2021/01/12 10:55:42;;;;;;;13.63;1.65;;;4.20;99.90;;;;;;5031846;28;20037;-81
2021/01/12 10:58:08;;;;;;;20.40;1.70;;;4.10;99.90;;;;;;5014588;28;20028;-81
2021/01/12 11:00:37;;;;;;;16.52;1.38;;;4.20;99.90;;;;;;5032419;28;20037;-81
2021/01/12 11:03:05;;;;;;;17.95;1.77;;;4.30;99.90;;;;;;5026149;28;20157;-82
2021/01/12 11:05:31;;;;;;;7.57;1.65;;;4.30;99.90;;;;;;5013592;28;20026;-81
2021/01/12 11:07:57;;;;;;;7.57;1.17;;;4.40;99.90;;;;;;5031944;28;20105;-81
2021/01/12 11:10:22;;;;;;;8.20;1.35;;;4.40;99.90;;;;;;5031960;28;20485;-81
2021/01/12 11:12:49;;;;;;;23.10;1.98;;;4.60;99.90;;;;;;5009384;28;20483;-81
2021/01/12 11:15:15;;;;;;;11.32;1.75;;;4.60;99.90;;;;;;5014076;28;20393;-81
2021/01/12 11:17:40;;;;;;;12.70;2.13;;;4.70;99.90;;;;;;5031151;28;20033;-82
2021/01/12 11:20:08;;;;;;;11.85;1.77;;;4.80;99.90;;;;;;5032108;28;20104;-82
2021/01/12 11:22:34;;;;;;;15.18;2.63;;;4.90;99.90;;;;;;5014273;28;20440;-82
2021/01/12 11:25:04;;;;;;;31.02;3.83;;;4.90;99.90;;;;;;5013878;28;20033;-82
2021/01/12 11:27:31;;;;;;;15.73;1.63;;;4.90;99.90;;;;;;5031590;28;20025;-84
2021/01/12 11:29:57;;;;;;;14.48;2.72;;;4.90;99.90;;;;;;5031529;28;20032;-84
2021/01/12 11:32:24;;;;;;;22.75;2.58;;;4.90;99.90;;;;;;5031623;28;20375;-85
2021/01/12 11:34:50;;;;;;;18.38;2.08;;;4.90;99.90;;;;;;5013306;28;20025;-83
2021/01/12 11:37:16;;;;;;;24.08;1.80;;;4.70;99.90;;;;;;5014371;28;20116;-83
2021/01/12 11:39:42;;;;;;;15.70;2.00;;;4.40;99.90;;;;;;5014387;28;20029;-81
2021/01/12 11:42:15;;;;;;;14.15;2.85;;;4.10;99.90;;;;;;5014283;28;20079;-81
2021/01/12 11:44:42;;;;;;;14.20;2.23;;;3.80;99.90;;;;;;5013651;28;20498;-81
2021/01/12 11:47:08;;;;;;;20.33;4.28;;;3.70;99.90;;;;;;5014191;28;20029;-82
2021/01/12 11:49:34;;;;;;;13.20;2.88;;;3.70;99.90;;;;;;5014214;28;20032;-81
2021/01/12 11:52:04;;;;;;;26.58;2.53;;;3.70;99.90;;;;;;5031774;28;20022;-82
2021/01/12 11:54:30;;;;;;;19.33;2.60;;;3.80;99.90;;;;;;5013878;28;20109;-83
2021/01/12 11:56:59;;;;;;;19.27;2.70;;;3.80;99.90;;;;;;5015271;28;20064;-83
2021/01/12 11:59:30;;;;;;;19.92;2.50;;;3.90;99.90;;;;;;5014865;28;20025;-84
2021/01/12 12:01:56;;;;;;;10.20;1.58;;;4.00;99.90;;;;;;5033602;28;20559;-81
2021/01/12 12:04:24;;;;;;;21.98;3.75;;;4.20;99.90;;;;;;5035362;28;20040;-81
2021/01/12 12:07:01;;;;;;;16.83;2.78;;;4.30;99.90;;;;;;5015634;28;20034;-80
2021/01/12 12:09:29;;;;;;;14.98;2.55;;;4.10;99.90;;;;;;5031504;28;20024;-80
2021/01/12 12:11:55;;;;;;;19.67;1.52;;;3.50;99.90;;;;;;5013579;28;20026;-80
2021/01/12 12:14:21;;;;;;;18.50;2.20;;;3.30;99.90;;;;;;5013304;28;20032;-80
2021/01/12 12:16:47;;;;;;;15.57;1.85;;;3.20;99.90;;;;;;5031516;28;20018;-80
2021/01/12 12:19:16;;;;;;;28.17;2.60;;;3.30;99.90;;;;;;5031298;28;20030;-79
2021/01/12 12:21:46;;;;;;;13.68;2.00;;;3.40;99.90;;;;;;5034991;28;20110;-79
2021/01/12 12:24:14;;;;;;;15.23;2.33;;;3.40;99.90;;;;;;5034994;28;20033;-79
2021/01/12 12:26:39;;;;;;;13.90;1.95;;;3.40;99.90;;;;;;5035215;28;20021;-80
2021/01/12 12:29:05;;;;;;;10.07;1.88;;;3.50;99.90;;;;;;5035250;28;20084;-79
2021/01/12 12:31:31;;;;;;;9.23;4.13;;;3.40;99.90;;;;;;5017212;28;20503;-79
2021/01/12 12:33:56;;;;;;;9.85;1.50;;;3.50;99.90;;;;;;5005681;28;20032;-79
2021/01/12 12:36:22;;;;;;;6.50;1.13;;;3.40;99.90;;;;;;5035203;28;20029;-79
2021/01/12 12:38:48;;;;;;;6.88;1.90;;;3.40;99.90;;;;;;5035016;28;20440;-79
2021/01/12 12:41:15;;;;;;;14.45;1.25;;;3.40;99.90;;;;;;5017501;28;20032;-79
2021/01/12 12:43:42;;;;;;;8.50;1.25;;;3.40;99.90;;;;;;5035097;28;20104;-79
2021/01/12 12:46:09;;;;;;;7.20;0.98;;;3.50;99.90;;;;;;5017415;28;20439;-78
2021/01/12 12:48:35;;;;;;;7.25;1.00;;;3.60;99.90;;;;;;5034930;28;20029;-78
2021/01/12 12:51:02;;;;;;;8.77;1.50;;;3.60;99.90;;;;;;5017163;28;20028;-79